Time;durP1;ratioP1;P1;durP2;ratioP2;P2;SDS_P1;SDS_P2;PMS_P1;PMS_P2;Temp;Humidity;BMP_temperature;BMP_pressure;BME280_temperature;BME280_humidity;BME280_pressure;Samples;Min_cycle;Max_cycle;Signal;HPM_P1;HPM_P2
2022/02/05 00:00:31;;;;;;;8.73;2.50;;;;;;;;;;5023742;28;20108;-70
2022/02/05 00:03:11;;;;;;;6.28;2.20;;;;;;;;;;5027183;28;20045;-72
2022/02/05 00:05:45;;;;;;;4.65;2.42;;;;;;;;;;5025476;28;20462;-71
2022/02/05 00:08:36;;;;;;;3.80;2.00;;;;;;;;;;5020327;28;20084;-69
2022/02/05 00:14:26;;;;;;;;;;;;;;;;;;3323574;28;10021357;-69
2022/02/05 00:20:21;;;;;;;5.63;2.15;;;;;;;;;;5019308;28;20049;-71
2022/02/05 00:39:29;;;;;;;3.30;2.08;;;;;;;;;;5021201;28;20137;-69
2022/02/05 00:42:09;;;;;;;3.72;2.10;;;;;;;;;;5015920;28;20140;-72
2022/02/05 00:44:37;;;;;;;4.55;2.10;;;;;;;;;;5016330;28;20058;-69
2022/02/05 00:47:06;;;;;;;2.47;1.65;;;;;;;;;;5012058;28;20081;-72
2022/02/05 00:49:34;;;;;;;3.33;1.73;;;;;;;;;;5011825;28;20088;-73
2022/02/05 00:52:09;;;;;;;2.92;1.80;;;;;;;;;;5017404;28;20149;-71
2022/02/05 00:54:39;;;;;;;3.88;1.85;;;;;;;;;;5014786;28;20049;-72
2022/02/05 00:57:30;;;;;;;3.63;1.92;;;;;;;;;;5020362;28;20050;-71
2022/02/05 00:59:58;;;;;;;5.13;1.73;;;;;;;;;;5012005;28;20050;-75
2022/02/05 01:02:27;;;;;;;1.10;0.60;;;;;;;;;;5022184;28;20060;-71
2022/02/05 01:04:55;;;;;;;2.35;0.52;;;;;;;;;;5022935;28;20060;-71
2022/02/05 01:07:25;;;;;;;0.50;0.40;;;;;;;;;;5023552;28;20140;-74
2022/02/05 01:09:53;;;;;;;1.98;0.43;;;;;;;;;;5021845;28;20037;-70
2022/02/05 01:12:24;;;;;;;0.70;0.52;;;;;;;;;;5024847;28;20140;-71
2022/02/05 01:14:55;;;;;;;2.50;0.52;;;;;;;;;;5031511;28;20048;-69
2022/02/05 01:17:30;;;;;;;0.45;0.40;;;;;;;;;;5023096;28;20087;-71
2022/02/05 01:22:47;;;;;;;0.80;0.38;;;;;;;;;;5028022;28;20141;-71
2022/02/05 01:25:20;;;;;;;0.90;0.70;;;;;;;;;;5023917;28;20458;-70
2022/02/05 01:27:53;;;;;;;2.35;0.55;;;;;;;;;;5027451;28;20045;-71
2022/02/05 01:30:25;;;;;;;0.82;0.40;;;;;;;;;;5022342;28;20144;-71
2022/02/05 01:33:07;;;;;;;1.80;0.65;;;;;;;;;;5028443;28;20512;-71
2022/02/05 01:35:44;;;;;;;0.32;0.32;;;;;;;;;;5029066;28;20132;-71
2022/02/05 01:52:20;;;;;;;2.58;0.77;;;;;;;;;;5029437;28;20046;-71
2022/02/05 01:55:13;;;;;;;0.93;0.65;;;;;;;;;;5025347;28;20934;-71
2022/02/05 01:57:49;;;;;;;0.57;0.52;;;;;;;;;;5017189;28;20498;-71
2022/02/05 02:06:09;;;;;;;0.86;0.46;;;;;;;;;;312722;28;10023743;-71
2022/02/05 02:11:39;;;;;;;0.73;0.50;;;;;;;;;;5020023;28;20120;-71
2022/02/05 02:14:30;;;;;;;1.23;0.50;;;;;;;;;;5017407;28;20057;-72
2022/02/05 02:22:49;;;;;;;0.68;0.60;;;;;;;;;;5021023;28;20168;-71
2022/02/05 02:25:30;;;;;;;1.08;0.50;;;;;;;;;;5018626;28;20132;-70
2022/02/05 02:28:06;;;;;;;0.45;0.40;;;;;;;;;;5021628;28;20136;-72
2022/02/05 02:30:40;;;;;;;0.75;0.50;;;;;;;;;;5016047;28;20137;-70
2022/02/05 02:33:16;;;;;;;0.98;0.50;;;;;;;;;;5026476;28;20084;-71
2022/02/05 02:35:48;;;;;;;0.50;0.50;;;;;;;;;;5024514;28;20168;-71
2022/02/05 02:38:21;;;;;;;0.82;0.50;;;;;;;;;;5022164;28;20056;-70
2022/02/05 02:40:59;;;;;;;0.90;0.50;;;;;;;;;;5026285;28;20155;-70
2022/02/05 02:43:30;;;;;;;1.95;0.73;;;;;;;;;;5017219;28;20138;-72
2022/02/05 02:45:59;;;;;;;1.05;0.50;;;;;;;;;;5019675;28;20037;-70
2022/02/05 02:48:27;;;;;;;0.93;0.50;;;;;;;;;;5020915;28;20077;-70
2022/02/05 02:59:24;;;;;;;0.40;0.40;;;;;;;;;;5017890;28;20128;-71
2022/02/05 03:01:59;;;;;;;0.43;0.38;;;;;;;;;;5027197;28;20041;-71
2022/02/05 03:04:27;;;;;;;0.70;0.60;;;;;;;;;;5027839;28;20110;-71
2022/02/05 03:06:56;;;;;;;1.33;0.80;;;;;;;;;;5024612;28;20138;-70
2022/02/05 03:09:25;;;;;;;3.28;0.80;;;;;;;;;;5025390;28;20046;-71
2022/02/05 03:11:54;;;;;;;0.60;0.43;;;;;;;;;;5022970;28;20128;-71
2022/02/05 03:14:22;;;;;;;0.95;0.60;;;;;;;;;;5017818;28;20049;-71
2022/02/05 03:16:52;;;;;;;1.10;0.55;;;;;;;;;;5021298;28;20558;-71
2022/02/05 03:19:20;;;;;;;1.65;0.68;;;;;;;;;;5026329;28;20513;-71
2022/02/05 03:21:48;;;;;;;0.60;0.60;;;;;;;;;;5018387;28;20100;-71
2022/02/05 03:24:17;;;;;;;0.90;0.60;;;;;;;;;;5027583;28;20789;-70
2022/02/05 03:26:46;;;;;;;0.60;0.50;;;;;;;;;;5023580;28;20053;-70
2022/02/05 03:29:15;;;;;;;1.60;0.40;;;;;;;;;;5026599;28;20136;-72
2022/02/05 03:31:47;;;;;;;0.68;0.68;;;;;;;;;;5020235;28;20337;-70
2022/02/05 03:34:15;;;;;;;0.75;0.50;;;;;;;;;;5028575;28;20053;-72
2022/02/05 03:36:44;;;;;;;1.08;0.70;;;;;;;;;;5024111;28;20087;-70
2022/02/05 03:39:12;;;;;;;0.70;0.57;;;;;;;;;;5024492;28;20128;-71
2022/02/05 03:41:40;;;;;;;2.40;0.60;;;;;;;;;;5028899;28;20092;-70
2022/02/05 03:44:10;;;;;;;0.75;0.60;;;;;;;;;;5015674;28;20076;-70
2022/02/05 03:46:39;;;;;;;0.90;0.57;;;;;;;;;;5016169;28;20056;-71
2022/02/05 03:49:08;;;;;;;1.10;0.70;;;;;;;;;;5019958;28;20041;-70
2022/02/05 03:51:36;;;;;;;1.40;0.70;;;;;;;;;;5020448;28;20053;-70
2022/02/05 03:54:04;;;;;;;1.67;0.52;;;;;;;;;;5026934;28;20053;-70
2022/02/05 03:56:33;;;;;;;1.52;0.70;;;;;;;;;;5022674;28;20048;-70
2022/02/05 03:59:01;;;;;;;1.00;0.57;;;;;;;;;;5019625;28;20129;-71
2022/02/05 04:01:31;;;;;;;0.70;0.55;;;;;;;;;;5020970;28;20049;-72
2022/02/05 04:03:59;;;;;;;1.00;0.57;;;;;;;;;;5019429;28;20077;-72
2022/02/05 04:06:27;;;;;;;2.20;0.68;;;;;;;;;;5025676;28;20069;-71
2022/02/05 04:08:59;;;;;;;1.23;0.80;;;;;;;;;;5019919;28;20069;-72
2022/02/05 04:11:33;;;;;;;0.88;0.60;;;;;;;;;;5022848;28;20077;-71
2022/02/05 04:16:49;;;;;;;1.27;0.63;;;;;;;;;;5022984;28;20038;-71
2022/02/05 04:19:17;;;;;;;3.28;1.20;;;;;;;;;;5027798;28;20053;-71
2022/02/05 04:21:46;;;;;;;0.80;0.60;;;;;;;;;;5022071;28;20600;-72
2022/02/05 04:24:15;;;;;;;1.10;0.65;;;;;;;;;;5025968;28;20046;-70
2022/02/05 04:26:43;;;;;;;0.57;0.47;;;;;;;;;;5022702;28;20073;-71
2022/02/05 04:29:12;;;;;;;1.73;0.52;;;;;;;;;;5022829;28;20396;-70
2022/02/05 04:31:41;;;;;;;1.48;0.50;;;;;;;;;;5024912;28;20493;-70
2022/02/05 04:34:10;;;;;;;1.10;0.55;;;;;;;;;;5021413;28;20045;-70
2022/02/05 04:36:39;;;;;;;2.92;0.70;;;;;;;;;;5023575;28;20049;-71
2022/02/05 04:39:11;;;;;;;1.63;0.73;;;;;;;;;;5023191;28;20063;-71
2022/02/05 04:41:47;;;;;;;4.30;0.80;;;;;;;;;;5025196;28;20069;-71
2022/02/05 04:44:25;;;;;;;3.67;0.93;;;;;;;;;;5029529;28;20061;-71
2022/02/05 04:55:26;;;;;;;0.80;0.50;;;;;;;;;;4979789;28;20053;-73
2022/02/05 04:58:05;;;;;;;1.52;0.60;;;;;;;;;;5030173;28;20519;-70
2022/02/05 05:00:58;;;;;;;0.98;0.60;;;;;;;;;;5026029;28;20147;-71
2022/02/05 05:06:28;;;;;;;1.38;0.80;;;;;;;;;;5025122;28;20045;-70
2022/02/05 05:09:10;;;;;;;2.25;0.90;;;;;;;;;;5028148;28;20540;-70
2022/02/05 05:11:52;;;;;;;1.13;0.73;;;;;;;;;;5022200;28;20046;-70
2022/02/05 05:20:12;;;;;;;1.73;0.60;;;;;;;;;;5026010;28;20136;-71
2022/02/05 05:22:41;;;;;;;2.03;0.70;;;;;;;;;;5030880;28;20037;-70
2022/02/05 05:25:14;;;;;;;;;;;;;;;;;;5026188;28;20056;-71
2022/02/05 05:27:43;;;;;;;0.70;0.60;;;;;;;;;;5030140;28;20008;-69
2022/02/05 05:30:12;;;;;;;1.92;0.70;;;;;;;;;;5018819;28;20552;-72
2022/02/05 05:32:40;;;;;;;0.80;0.70;;;;;;;;;;5025775;28;20120;-70
2022/02/05 05:35:09;;;;;;;0.60;0.60;;;;;;;;;;5031054;28;20059;-70
2022/02/05 05:37:37;;;;;;;2.05;0.60;;;;;;;;;;5023691;28;20080;-71
2022/02/05 05:40:08;;;;;;;1.27;0.88;;;;;;;;;;5029114;28;20076;-72
2022/02/05 05:42:40;;;;;;;1.23;0.90;;;;;;;;;;5018980;28;20486;-69
2022/02/05 05:45:36;;;;;;;0.98;0.65;;;;;;;;;;5023795;28;20473;-70
2022/02/05 05:48:09;;;;;;;0.70;0.57;;;;;;;;;;5015535;28;20133;-69
2022/02/05 05:53:24;;;;;;;2.55;1.00;;;;;;;;;;5028425;28;20498;-69
2022/02/05 05:55:54;;;;;;;1.25;0.57;;;;;;;;;;5026903;28;20050;-69
2022/02/05 05:58:22;;;;;;;1.75;0.80;;;;;;;;;;5021466;28;20067;-69
2022/02/05 06:00:50;;;;;;;2.53;0.88;;;;;;;;;;5026551;28;20179;-69
2022/02/05 06:03:19;;;;;;;2.88;0.80;;;;;;;;;;5022492;28;20136;-68
2022/02/05 06:05:47;;;;;;;1.45;0.82;;;;;;;;;;5012508;28;20060;-69
2022/02/05 06:08:21;;;;;;;2.35;0.80;;;;;;;;;;438073;28;10022835;-69
2022/02/05 06:10:49;;;;;;;2.42;1.10;;;;;;;;;;5017751;28;20353;-69
2022/02/05 06:13:19;;;;;;;2.40;1.08;;;;;;;;;;5016221;28;20052;-68
2022/02/05 06:15:49;;;;;;;3.17;0.95;;;;;;;;;;5030456;28;20059;-69
2022/02/05 06:18:18;;;;;;;1.15;1.05;;;;;;;;;;5015179;28;20057;-68
2022/02/05 06:20:46;;;;;;;1.77;1.17;;;;;;;;;;5022032;28;20140;-69
2022/02/05 06:23:14;;;;;;;2.80;1.10;;;;;;;;;;5016235;28;20136;-69
2022/02/05 06:25:43;;;;;;;1.65;1.25;;;;;;;;;;5021012;28;20540;-68
2022/02/05 06:28:14;;;;;;;2.20;1.15;;;;;;;;;;5021784;28;20165;-69
2022/02/05 06:30:44;;;;;;;2.10;1.48;;;;;;;;;;5015936;28;20050;-69
2022/02/05 06:33:12;;;;;;;2.13;1.30;;;;;;;;;;5029227;28;20155;-69
2022/02/05 06:35:42;;;;;;;2.35;1.55;;;;;;;;;;5027211;28;20142;-69
2022/02/05 06:38:10;;;;;;;3.33;1.10;;;;;;;;;;5009949;28;20089;-69
2022/02/05 06:40:39;;;;;;;3.83;1.52;;;;;;;;;;5014284;28;20077;-69
2022/02/05 06:43:12;;;;;;;2.08;1.25;;;;;;;;;;5016370;28;20052;-68
2022/02/05 06:45:40;;;;;;;2.78;1.55;;;;;;;;;;5030002;28;20516;-68
2022/02/05 06:48:10;;;;;;;2.70;1.60;;;;;;;;;;5021658;28;20055;-68
2022/02/05 06:50:39;;;;;;;1.25;1.13;;;;;;;;;;5023363;28;20050;-68
2022/02/05 06:53:07;;;;;;;2.17;1.10;;;;;;;;;;5017140;28;20541;-68
2022/02/05 06:55:35;;;;;;;2.10;1.42;;;;;;;;;;5010736;28;20046;-68
2022/02/05 06:58:03;;;;;;;1.88;1.20;;;;;;;;;;5010363;28;20173;-69
2022/02/05 07:00:32;;;;;;;5.18;1.30;;;;;;;;;;5010898;28;20401;-68
2022/02/05 07:03:00;;;;;;;3.22;1.13;;;;;;;;;;5025995;28;20053;-69
2022/02/05 07:05:30;;;;;;;2.20;1.20;;;;;;;;;;5018263;28;20062;-69
2022/02/05 07:07:59;;;;;;;1.88;1.25;;;;;;;;;;5010059;28;20041;-70
2022/02/05 07:10:28;;;;;;;2.83;1.38;;;;;;;;;;5012147;28;20100;-68
2022/02/05 07:13:10;;;;;;;3.22;1.33;;;;;;;;;;5015097;28;20069;-68
2022/02/05 07:15:44;;;;;;;3.95;1.30;;;;;;;;;;5027499;28;20068;-68
2022/02/05 07:18:18;;;;;;;1.92;1.08;;;;;;;;;;5029439;28;20058;-68
2022/02/05 07:20:52;;;;;;;3.35;1.30;;;;;;;;;;5011881;28;20428;-68
2022/02/05 07:23:52;;;;;;;4.45;1.55;;;;;;;;;;5014819;28;20050;-68
2022/02/05 07:29:16;;;;;;;3.05;1.40;;;;;;;;;;5010441;28;20046;-68
2022/02/05 07:31:45;;;;;;;4.47;2.08;;;;;;;;;;5027485;28;20058;-69
2022/02/05 07:34:14;;;;;;;1.80;1.10;;;;;;;;;;5029852;28;20061;-69
2022/02/05 07:36:44;;;;;;;4.07;1.40;;;;;;;;;;5018664;28;20482;-69
2022/02/05 07:39:13;;;;;;;3.30;1.30;;;;;;;;;;5028380;28;20565;-69
2022/02/05 07:41:42;;;;;;;2.22;1.20;;;;;;;;;;5028063;28;20076;-69
2022/02/05 07:44:13;;;;;;;1.70;1.27;;;;;;;;;;5025438;28;20534;-70
2022/02/05 07:46:43;;;;;;;3.85;1.23;;;;;;;;;;5009869;28;20056;-69
2022/02/05 07:49:13;;;;;;;1.58;1.17;;;;;;;;;;5009749;28;20132;-69
2022/02/05 07:51:42;;;;;;;1.25;1.00;;;;;;;;;;5020705;28;20041;-69
2022/02/05 07:54:12;;;;;;;2.78;1.42;;;;;;;;;;5015197;28;20175;-69
2022/02/05 07:56:42;;;;;;;3.95;1.17;;;;;;;;;;5024841;28;20527;-69
2022/02/05 07:59:11;;;;;;;1.67;1.40;;;;;;;;;;5017398;28;20052;-69
2022/02/05 08:01:39;;;;;;;1.90;0.90;;;;;;;;;;5009709;28;20133;-69
2022/02/05 08:04:09;;;;;;;5.43;1.75;;;;;;;;;;5009868;28;20054;-69
2022/02/05 08:06:38;;;;;;;2.25;1.40;;;;;;;;;;5013073;28;20041;-69
2022/02/05 08:09:15;;;;;;;2.88;1.38;;;;;;;;;;5025841;28;20129;-69
2022/02/05 08:11:50;;;;;;;2.10;1.08;;;;;;;;;;5021918;28;20382;-69
2022/02/05 08:14:20;;;;;;;4.20;1.80;;;;;;;;;;5028228;28;20037;-69
2022/02/05 08:16:58;;;;;;;2.22;1.00;;;;;;;;;;5020626;28;20042;-69
2022/02/05 08:19:27;;;;;;;2.90;1.20;;;;;;;;;;5013180;28;20490;-69
2022/02/05 08:22:16;;;;;;;3.95;1.30;;;;;;;;;;5023070;28;20050;-69
2022/02/05 08:24:45;;;;;;;3.10;1.38;;;;;;;;;;5009580;28;20076;-69
2022/02/05 08:27:16;;;;;;;3.85;1.30;;;;;;;;;;5015693;28;20049;-69
2022/02/05 08:29:52;;;;;;;3.78;1.13;;;;;;;;;;5018450;28;20052;-69
2022/02/05 08:32:23;;;;;;;1.75;1.00;;;;;;;;;;5028172;28;20061;-69
2022/02/05 08:34:52;;;;;;;1.52;1.10;;;;;;;;;;5029506;28;20080;-69
2022/02/05 08:37:21;;;;;;;5.65;1.35;;;;;;;;;;5014964;28;20056;-69
2022/02/05 08:39:49;;;;;;;1.95;1.00;;;;;;;;;;5009810;28;20323;-70
2022/02/05 08:42:19;;;;;;;2.00;1.10;;;;;;;;;;5014682;28;20449;-69
2022/02/05 08:44:47;;;;;;;1.63;1.17;;;;;;;;;;5016668;28;20476;-69
2022/02/05 08:47:16;;;;;;;1.55;1.05;;;;;;;;;;5012275;28;20049;-69
2022/02/05 08:49:44;;;;;;;4.00;1.08;;;;;;;;;;5012286;28;20494;-70
2022/02/05 08:52:13;;;;;;;3.35;1.40;;;;;;;;;;5002677;28;20129;-69
2022/02/05 08:54:42;;;;;;;3.63;1.20;;;;;;;;;;5005475;28;20053;-69
2022/02/05 08:57:10;;;;;;;1.67;1.10;;;;;;;;;;5008300;28;20128;-69
2022/02/05 08:59:50;;;;;;;5.40;1.35;;;;;;;;;;5008506;28;20129;-69
2022/02/05 09:02:24;;;;;;;1.30;1.00;;;;;;;;;;5027349;28;20500;-69
2022/02/05 09:04:59;;;;;;;2.83;1.03;;;;;;;;;;5027776;28;20088;-70
2022/02/05 09:07:27;;;;;;;;;;;;;;;;;;5023824;28;20171;-69
2022/02/05 09:10:12;;;;;;;6.78;1.92;;;;;;;;;;5015834;28;19996;-69
2022/02/05 09:13:09;;;;;;;3.75;1.23;;;;;;;;;;5014949;28;20398;-69
2022/02/05 09:15:44;;;;;;;2.63;1.40;;;;;;;;;;336812;28;10023240;-70
2022/02/05 09:18:13;;;;;;;2.22;1.15;;;;;;;;;;5015899;28;20512;-69
2022/02/05 09:20:41;;;;;;;3.67;1.35;;;;;;;;;;5001972;28;20070;-69
2022/02/05 09:23:10;;;;;;;5.95;1.67;;;;;;;;;;5014330;28;20077;-70
2022/02/05 09:25:41;;;;;;;2.05;1.35;;;;;;;;;;5019727;28;20045;-69
2022/02/05 09:28:09;;;;;;;2.58;0.95;;;;;;;;;;5016195;28;20085;-69
2022/02/05 09:30:47;;;;;;;1.95;1.38;;;;;;;;;;5009701;28;20095;-69
2022/02/05 09:33:18;;;;;;;2.85;1.10;;;;;;;;;;5025287;28;20045;-69
2022/02/05 09:35:47;;;;;;;1.67;1.00;;;;;;;;;;5028176;28;20060;-71
2022/02/05 09:38:15;;;;;;;3.50;1.15;;;;;;;;;;5027718;28;20096;-69
2022/02/05 09:40:44;;;;;;;1.52;1.10;;;;;;;;;;5029752;28;20041;-70
2022/02/05 09:43:13;;;;;;;2.42;1.20;;;;;;;;;;5025925;28;20044;-69
2022/02/05 09:45:42;;;;;;;4.45;1.50;;;;;;;;;;5030875;28;20045;-70
2022/02/05 09:48:11;;;;;;;1.70;0.98;;;;;;;;;;5031038;28;20480;-70
2022/02/05 09:50:41;;;;;;;5.10;1.20;;;;;;;;;;5016849;28;20503;-70
2022/02/05 09:53:15;;;;;;;3.05;1.73;;;;;;;;;;5017996;28;20155;-70
2022/02/05 09:55:44;;;;;;;4.22;1.20;;;;;;;;;;5029613;28;20089;-69
2022/02/05 09:58:13;;;;;;;2.22;1.00;;;;;;;;;;5010540;28;20081;-70
2022/02/05 10:00:41;;;;;;;5.85;1.05;;;;;;;;;;5018134;28;20552;-71
2022/02/05 10:03:24;;;;;;;4.18;1.00;;;;;;;;;;5012450;28;20049;-69
2022/02/05 10:06:09;;;;;;;2.58;1.00;;;;;;;;;;5009878;28;20049;-69
2022/02/05 10:08:38;;;;;;;3.63;1.33;;;;;;;;;;5010238;28;20449;-69
2022/02/05 10:11:07;;;;;;;1.17;0.80;;;;;;;;;;5009077;28;20045;-69
2022/02/05 10:13:35;;;;;;;2.08;0.70;;;;;;;;;;5007533;28;20046;-69
2022/02/05 10:16:07;;;;;;;1.85;0.70;;;;;;;;;;5011686;28;20057;-69
2022/02/05 10:18:37;;;;;;;0.75;0.55;;;;;;;;;;5020993;28;20081;-69
2022/02/05 10:21:19;;;;;;;9.00;1.23;;;;;;;;;;5010428;28;20125;-70
2022/02/05 10:23:55;;;;;;;2.08;1.10;;;;;;;;;;5025266;28;20088;-70
2022/02/05 10:26:30;;;;;;;2.30;0.70;;;;;;;;;;5021239;28;20057;-69
2022/02/05 10:28:59;;;;;;;1.67;0.73;;;;;;;;;;5025882;28;20088;-69
2022/02/05 10:31:28;;;;;;;5.15;0.73;;;;;;;;;;5030244;28;20120;-69
2022/02/05 10:34:12;;;;;;;4.35;1.50;;;;;;;;;;5022911;28;20046;-69
2022/02/05 10:36:45;;;;;;;2.75;1.00;;;;;;;;;;5021775;28;20144;-69
2022/02/05 10:39:25;;;;;;;2.40;0.90;;;;;;;;;;5011685;28;20409;-69
2022/02/05 10:44:39;;;;;;;5.38;0.95;;;;;;;;;;5016876;28;20120;-70
2022/02/05 10:47:08;;;;;;;2.13;1.02;;;;;;;;;;5016990;28;20144;-70
2022/02/05 10:49:41;;;;;;;2.30;0.80;;;;;;;;;;5015282;28;20042;-69
2022/02/05 10:52:24;;;;;;;5.15;1.17;;;;;;;;;;5017238;28;20168;-70
2022/02/05 10:55:01;;;;;;;4.93;1.10;;;;;;;;;;5025014;28;20069;-69
2022/02/05 10:57:37;;;;;;;1.30;0.70;;;;;;;;;;5013589;28;20527;-70
2022/02/05 11:05:42;;;;;;;3.45;0.73;;;;;;;;;;5010591;28;20560;-69
2022/02/05 11:08:13;;;;;;;4.00;0.82;;;;;;;;;;5022381;28;20556;-70
2022/02/05 11:19:09;;;;;;;3.03;0.88;;;;;;;;;;5028526;28;20061;-69
2022/02/05 11:21:50;;;;;;;1.13;0.70;;;;;;;;;;5030123;28;20226;-69
2022/02/05 11:24:23;;;;;;;3.40;1.15;;;;;;;;;;5027836;28;20056;-69
2022/02/05 11:26:53;;;;;;;1.70;0.80;;;;;;;;;;5028009;28;20053;-69
2022/02/05 11:29:28;;;;;;;5.95;1.17;;;;;;;;;;5026914;28;20049;-69
2022/02/05 11:32:11;;;;;;;1.73;0.70;;;;;;;;;;5026049;28;20400;-69
2022/02/05 11:34:48;;;;;;;1.00;0.70;;;;;;;;;;5027757;28;20124;-70
2022/02/05 11:37:17;;;;;;;4.05;0.77;;;;;;;;;;5027125;28;20148;-68
2022/02/05 11:39:48;;;;;;;5.32;0.70;;;;;;;;;;5023922;28;20081;-69
2022/02/05 11:42:31;;;;;;;3.42;0.70;;;;;;;;;;5017268;28;20408;-69
2022/02/05 11:45:01;;;;;;;1.48;0.88;;;;;;;;;;5010766;28;20061;-69
2022/02/05 11:47:31;;;;;;;0.77;0.50;;;;;;;;;;5008791;28;20073;-70
2022/02/05 11:50:18;;;;;;;0.70;0.60;;;;;;;;;;5009315;28;20045;-70
2022/02/05 11:53:01;;;;;;;3.78;0.80;;;;;;;;;;5020021;28;20045;-69
2022/02/05 11:55:32;;;;;;;2.72;0.90;;;;;;;;;;5016051;28;20072;-69
2022/02/05 11:58:01;;;;;;;2.60;0.60;;;;;;;;;;5014780;28;21216;-69
2022/02/05 12:00:34;;;;;;;4.63;1.00;;;;;;;;;;5030021;28;20092;-70
2022/02/05 12:03:17;;;;;;;2.80;0.90;;;;;;;;;;5020431;28;20053;-69
2022/02/05 12:05:50;;;;;;;1.75;1.33;;;;;;;;;;5012434;28;20061;-69
2022/02/05 12:08:24;;;;;;;5.25;0.90;;;;;;;;;;5014922;28;20564;-70
2022/02/05 12:10:57;;;;;;;2.83;0.93;;;;;;;;;;5021564;28;20045;-69
2022/02/05 12:13:28;;;;;;;3.45;0.90;;;;;;;;;;5029138;28;20139;-69
2022/02/05 12:16:23;;;;;;;3.00;0.70;;;;;;;;;;5020970;28;20045;-69
2022/02/05 12:18:59;;;;;;;0.93;0.80;;;;;;;;;;4989837;28;20049;-69
2022/02/05 12:21:29;;;;;;;2.25;0.70;;;;;;;;;;5007693;28;20056;-69
2022/02/05 12:27:04;;;;;;;11.02;1.08;;;;;;;;;;5017147;28;20050;-70
2022/02/05 12:29:33;;;;;;;6.18;1.08;;;;;;;;;;5004103;28;20058;-69
2022/02/05 12:32:02;;;;;;;2.25;0.80;;;;;;;;;;5010555;28;20046;-69
2022/02/05 12:34:35;;;;;;;5.57;1.00;;;;;;;;;;5012148;28;20091;-69
2022/02/05 12:37:04;;;;;;;4.20;0.90;;;;;;;;;;5013958;28;20133;-69
2022/02/05 12:39:34;;;;;;;0.98;0.60;;;;;;;;;;5026355;28;20049;-69
2022/02/05 12:42:07;;;;;;;2.58;0.60;;;;;;;;;;5024528;28;20045;-69
2022/02/05 12:44:39;;;;;;;2.35;0.90;;;;;;;;;;5012697;28;20041;-69
2022/02/05 12:47:12;;;;;;;2.33;0.77;;;;;;;;;;5017335;28;20084;-69
2022/02/05 12:49:52;;;;;;;3.30;0.85;;;;;;;;;;5008879;28;20565;-69
2022/02/05 12:52:24;;;;;;;1.35;0.60;;;;;;;;;;5016752;28;20045;-68
2022/02/05 12:54:56;;;;;;;1.27;0.70;;;;;;;;;;5009798;28;20137;-69
2022/02/05 12:57:26;;;;;;;0.52;0.50;;;;;;;;;;5028474;28;20136;-69
2022/02/05 12:59:55;;;;;;;5.60;1.10;;;;;;;;;;5012058;28;20108;-69
2022/02/05 13:02:24;;;;;;;2.60;0.80;;;;;;;;;;5030652;28;20132;-69
2022/02/05 13:04:53;;;;;;;1.50;0.80;;;;;;;;;;5032382;28;20057;-69
2022/02/05 13:07:26;;;;;;;4.45;0.80;;;;;;;;;;5023719;28;20042;-69
2022/02/05 13:09:57;;;;;;;4.72;1.20;;;;;;;;;;5017050;28;20141;-69
2022/02/05 13:12:30;;;;;;;2.83;1.00;;;;;;;;;;5015210;28;20387;-69
2022/02/05 13:15:02;;;;;;;2.00;0.80;;;;;;;;;;5022014;28;20076;-69
2022/02/05 13:17:40;;;;;;;3.58;0.80;;;;;;;;;;5022025;28;20460;-70
2022/02/05 13:26:10;;;;;;;1.67;0.85;;;;;;;;;;4980596;28;20129;-69
2022/02/05 13:28:46;;;;;;;1.50;0.77;;;;;;;;;;5010083;28;20584;-69
2022/02/05 13:34:09;;;;;;;6.82;1.05;;;;;;;;;;5026967;28;20077;-70
2022/02/05 13:36:42;;;;;;;1.40;0.75;;;;;;;;;;5030544;28;20068;-69
2022/02/05 13:39:28;;;;;;;3.53;1.02;;;;;;;;;;5026728;28;20053;-70
2022/02/05 13:42:00;;;;;;;2.47;0.70;;;;;;;;;;5024144;28;20050;-69
2022/02/05 13:44:43;;;;;;;1.77;0.55;;;;;;;;;;5023686;28;20049;-69
2022/02/05 13:47:15;;;;;;;2.35;0.85;;;;;;;;;;5015142;28;20083;-69
2022/02/05 13:49:58;;;;;;;4.55;0.98;;;;;;;;;;5026762;28;20348;-68
2022/02/05 13:52:32;;;;;;;4.00;1.00;;;;;;;;;;5016831;28;20055;-69
2022/02/05 13:55:09;;;;;;;1.95;0.63;;;;;;;;;;5031633;28;20049;-71
2022/02/05 13:57:38;;;;;;;1.35;0.47;;;;;;;;;;5018544;28;20128;-69
2022/02/05 14:00:08;;;;;;;0.80;0.68;;;;;;;;;;5018848;28;20077;-69
2022/02/05 14:02:38;;;;;;;2.58;1.13;;;;;;;;;;5022054;28;20045;-70
2022/02/05 14:05:17;;;;;;;1.57;0.77;;;;;;;;;;1628528;28;10022919;-69
2022/02/05 14:07:47;;;;;;;1.40;0.70;;;;;;;;;;3990778;28;10001050;-69
2022/02/05 14:10:16;;;;;;;1.17;0.63;;;;;;;;;;5031198;28;20517;-69
2022/02/05 14:12:48;;;;;;;1.15;0.65;;;;;;;;;;5013356;28;20664;-69
2022/02/05 14:15:18;;;;;;;1.50;0.82;;;;;;;;;;5028528;28;20045;-69
2022/02/05 14:17:47;;;;;;;1.50;0.80;;;;;;;;;;5023266;28;20049;-69
2022/02/05 14:20:16;;;;;;;1.58;0.73;;;;;;;;;;5021505;28;20080;-69
2022/02/05 14:22:49;;;;;;;3.22;0.82;;;;;;;;;;5011644;28;20086;-70
2022/02/05 14:25:22;;;;;;;2.60;0.80;;;;;;;;;;5027409;28;20084;-69
2022/02/05 14:28:01;;;;;;;0.73;0.50;;;;;;;;;;5019551;28;20107;-69
2022/02/05 14:30:33;;;;;;;3.10;1.00;;;;;;;;;;5017629;28;20056;-70
2022/02/05 14:33:05;;;;;;;4.70;0.80;;;;;;;;;;5027950;28;20069;-71
2022/02/05 14:36:00;;;;;;;3.15;0.60;;;;;;;;;;5030852;28;20462;-69
2022/02/05 14:41:17;;;;;;;1.25;0.75;;;;;;;;;;5015172;28;20764;-69
2022/02/05 14:43:45;;;;;;;6.93;0.98;;;;;;;;;;5025657;28;20041;-69
2022/02/05 14:46:15;;;;;;;2.42;0.88;;;;;;;;;;5028068;28;20095;-69
2022/02/05 14:48:43;;;;;;;2.05;0.80;;;;;;;;;;5011086;28;20133;-69
2022/02/05 14:51:14;;;;;;;3.97;1.55;;;;;;;;;;5021818;28;20404;-69
2022/02/05 14:53:42;;;;;;;4.47;0.73;;;;;;;;;;5029147;28;20103;-69
2022/02/05 14:56:10;;;;;;;1.48;0.73;;;;;;;;;;5029795;28;20054;-69
2022/02/05 14:58:39;;;;;;;3.08;0.75;;;;;;;;;;5017468;28;20129;-69
2022/02/05 15:01:08;;;;;;;1.30;0.63;;;;;;;;;;5023125;28;20128;-69
2022/02/05 15:03:43;;;;;;;5.20;0.88;;;;;;;;;;5030139;28;20485;-69
2022/02/05 15:06:18;;;;;;;2.15;0.90;;;;;;;;;;5016227;28;20081;-70
2022/02/05 15:08:46;;;;;;;2.78;0.77;;;;;;;;;;5011059;28;20367;-70
2022/02/05 15:11:15;;;;;;;3.33;0.60;;;;;;;;;;5010320;28;20731;-69
2022/02/05 15:13:43;;;;;;;3.30;0.80;;;;;;;;;;5011630;28;20049;-69
2022/02/05 15:16:16;;;;;;;6.00;1.00;;;;;;;;;;5015761;28;20062;-69
2022/02/05 15:18:50;;;;;;;3.08;0.82;;;;;;;;;;5026924;28;20390;-69
2022/02/05 15:21:19;;;;;;;3.67;1.08;;;;;;;;;;5028822;28;20104;-69
2022/02/05 15:23:47;;;;;;;3.97;0.60;;;;;;;;;;5016916;28;20081;-69
2022/02/05 15:26:16;;;;;;;6.72;0.90;;;;;;;;;;5019094;28;20556;-69
2022/02/05 15:28:45;;;;;;;2.78;0.77;;;;;;;;;;5020109;28;20056;-69
2022/02/05 15:31:13;;;;;;;5.40;0.88;;;;;;;;;;5010506;28;20054;-69
2022/02/05 15:33:43;;;;;;;2.67;0.70;;;;;;;;;;5014191;28;20081;-69
2022/02/05 15:36:16;;;;;;;1.27;0.50;;;;;;;;;;5015311;28;20046;-69
2022/02/05 15:38:51;;;;;;;1.67;0.85;;;;;;;;;;5010436;28;20056;-69
2022/02/05 15:44:05;;;;;;;7.60;0.85;;;;;;;;;;5024166;28;20417;-69
2022/02/05 15:46:34;;;;;;;5.50;0.90;;;;;;;;;;5027294;28;20053;-69
2022/02/05 15:49:05;;;;;;;2.42;0.90;;;;;;;;;;5017694;28;20046;-69
2022/02/05 15:51:54;;;;;;;4.95;1.70;;;;;;;;;;5022511;28;20056;-69
2022/02/05 15:54:26;;;;;;;1.23;0.43;;;;;;;;;;5015737;28;20081;-69
2022/02/05 15:57:00;;;;;;;2.50;0.77;;;;;;;;;;5009903;28;20444;-69
2022/02/05 15:59:48;;;;;;;2.72;0.80;;;;;;;;;;5011135;28;20052;-69
2022/02/05 16:02:16;;;;;;;4.50;0.98;;;;;;;;;;5011311;28;20489;-69
2022/02/05 16:04:57;;;;;;;2.05;0.60;;;;;;;;;;2408029;28;10022833;-69
2022/02/05 16:07:28;;;;;;;2.20;0.57;;;;;;;;;;3626368;28;10001494;-69
2022/02/05 16:09:57;;;;;;;1.45;0.75;;;;;;;;;;5026673;28;20132;-69
2022/02/05 16:12:26;;;;;;;3.60;0.68;;;;;;;;;;5014634;28;20402;-69
2022/02/05 16:14:55;;;;;;;1.95;0.77;;;;;;;;;;5020863;28;20051;-69
2022/02/05 16:17:23;;;;;;;1.63;0.65;;;;;;;;;;5022784;28;20053;-69
2022/02/05 16:19:52;;;;;;;3.10;1.23;;;;;;;;;;5026679;28;20061;-69
2022/02/05 16:22:20;;;;;;;3.10;0.88;;;;;;;;;;5021784;28;20160;-68
2022/02/05 16:24:50;;;;;;;3.63;0.90;;;;;;;;;;5015484;28;20100;-69
2022/02/05 16:27:18;;;;;;;2.10;1.10;;;;;;;;;;5013576;28;20046;-68
2022/02/05 16:29:47;;;;;;;1.75;0.80;;;;;;;;;;5013938;28;20960;-68
2022/02/05 16:32:16;;;;;;;4.22;1.00;;;;;;;;;;5018044;28;20042;-70
2022/02/05 16:34:50;;;;;;;3.22;0.80;;;;;;;;;;5015187;28;20125;-69
2022/02/05 16:37:20;;;;;;;3.50;1.10;;;;;;;;;;5031973;28;20049;-69
2022/02/05 16:39:53;;;;;;;5.75;1.00;;;;;;;;;;5033583;28;20049;-69
2022/02/05 16:42:22;;;;;;;3.47;1.00;;;;;;;;;;5029092;28;20048;-69
2022/02/05 16:44:51;;;;;;;1.45;0.80;;;;;;;;;;5026801;28;20541;-68
2022/02/05 16:47:19;;;;;;;2.47;0.98;;;;;;;;;;5019196;28;20403;-69
2022/02/05 16:49:47;;;;;;;2.75;1.00;;;;;;;;;;5012977;28;20132;-69
2022/02/05 16:52:18;;;;;;;4.85;1.00;;;;;;;;;;5021775;28;20141;-68
2022/02/05 16:54:46;;;;;;;6.85;1.17;;;;;;;;;;5013631;28;20049;-68
2022/02/05 16:57:16;;;;;;;1.70;0.98;;;;;;;;;;5012517;28;20381;-68
2022/02/05 16:59:45;;;;;;;4.55;0.95;;;;;;;;;;5018106;28;20053;-69
2022/02/05 17:02:14;;;;;;;2.80;0.90;;;;;;;;;;5025328;28;20041;-69
2022/02/05 17:04:42;;;;;;;2.40;1.05;;;;;;;;;;5012951;28;20100;-68
2022/02/05 17:07:11;;;;;;;3.78;0.90;;;;;;;;;;5021386;28;20418;-69
2022/02/05 17:09:42;;;;;;;4.82;1.20;;;;;;;;;;5012625;28;20046;-68
2022/02/05 17:12:14;;;;;;;4.70;1.17;;;;;;;;;;5015811;28;20073;-69
2022/02/05 17:14:50;;;;;;;3.22;1.45;;;;;;;;;;5025035;28;20441;-69